| time (UTC) | temp C | wind direction | speed KPH | gust KPH | rain 1hr cm | rain 24hr cm | rain mn cm | humidity % | barometer mb |
| 20260906043038 | 18 | 197 | 0.0 | 0.0 | 0.00 | 0.20 | 0.00 | 85 | 1010.6 |
| 20260906041557 | 18 | 197 | 0.0 | 0.0 | 0.00 | 0.20 | 0.00 | 84 | 1010.7 |
| 20260906040036 | 18 | 197 | 0.0 | 0.0 | 0.00 | 0.20 | 0.00 | 84 | 1010.8 |
| 20260906034558 | 18 | 197 | 0.0 | 0.0 | 0.00 | 0.20 | 0.20 | 84 | 1011.0 |
| 20260906033026 | 19 | 197 | 0.0 | 0.0 | 0.00 | 0.20 | 0.20 | 84 | 1011.3 |
| 20260906031616 | 19 | 197 | 0.0 | 0.0 | 0.00 | 0.20 | 0.20 | 84 | 1011.3 |
| 20260906030015 | 20 | 197 | 0.0 | 0.0 | 0.00 | 0.20 | 0.20 | 84 | 1011.3 |
| 20260906024556 | 20 | 197 | 0.0 | 0.0 | 0.00 | 0.20 | 0.20 | 84 | 1010.9 |
| 20260906023024 | 20 | 197 | 0.0 | 0.0 | 0.00 | 0.20 | 0.20 | 83 | 1010.7 |
| 20260906021554 | 20 | 197 | 0.0 | 0.0 | 0.00 | 0.20 | 0.20 | 83 | 1010.6 |
| 20260906020022 | 20 | 197 | 0.0 | 0.0 | 0.00 | 0.20 | 0.20 | 83 | 1010.6 |
| 20260906014548 | 20 | 197 | 0.0 | 0.0 | 0.00 | 0.20 | 0.20 | 83 | 1010.5 |
| 20260906013026 | 20 | 197 | 0.0 | 0.0 | 0.00 | 0.20 | 0.20 | 83 | 1010.3 |
| 20260906011556 | 21 | 197 | 0.0 | 0.0 | 0.00 | 0.20 | 0.20 | 83 | 1009.8 |
| 20260906010018 | 21 | 197 | 0.0 | 0.0 | 0.00 | 0.20 | 0.20 | 83 | 1009.7 |
| 20260906004552 | 21 | 197 | 0.0 | 0.0 | 0.00 | 0.20 | 0.20 | 82 | 1009.8 |
| 20260906003016 | 21 | 197 | 0.0 | 0.0 | 0.00 | 0.20 | 0.20 | 82 | 1009.6 |
| 20260906001545 | 21 | 197 | 0.0 | 0.0 | 0.00 | 0.20 | 0.20 | 82 | 1009.3 |
| 20260906000010 | 22 | 197 | 0.0 | 0.0 | 0.00 | 0.20 | 0.20 | 82 | 1009.1 |
| 20260905234554 | 22 | 197 | 0.0 | 0.0 | 0.00 | 0.20 | 0.20 | 81 | 1008.9 |
| 20260905233035 | 22 | 197 | 0.0 | 0.0 | 0.00 | 0.20 | 0.20 | 81 | 1008.9 |
| 20260905231556 | 23 | 197 | 0.0 | 0.0 | 0.00 | 0.20 | 0.20 | 81 | 1008.8 |
| 20260905230022 | 23 | 197 | 0.0 | 0.0 | 0.00 | 0.20 | 0.20 | 80 | 1008.7 |
| 20260905224549 | 23 | 197 | 0.0 | 0.0 | 0.00 | 0.20 | 0.20 | 80 | 1008.6 |
| 20260905223008 | 24 | 197 | 0.0 | 0.0 | 0.00 | 0.20 | 0.20 | 79 | 1008.6 |
| 20260905221546 | 25 | 197 | 0.0 | 0.0 | 0.00 | 0.20 | 0.20 | 78 | 1008.7 |
| 20260905220006 | 25 | 195 | 0.0 | 3.2 | 0.00 | 0.20 | 0.20 | 78 | 1008.6 |
| 20260905214538 | 25 | 209 | 0.0 | 0.0 | 0.00 | 0.20 | 0.20 | 78 | 1008.6 |
| 20260905213015 | 25 | 209 | 0.0 | 0.0 | 0.00 | 0.20 | 0.20 | 79 | 1008.6 |
| 20260905211533 | 24 | 209 | 0.0 | 0.0 | 0.00 | 0.20 | 0.20 | 80 | 1008.8 |
| 20260905210108 | 23 | 209 | 0.0 | 0.0 | 0.00 | 0.20 | 0.20 | 80 | 1008.9 |
| 20260905204527 | 23 | 209 | 0.0 | 0.0 | 0.00 | 0.20 | 0.20 | 81 | 1008.9 |
| 20260905203059 | 23 | 209 | 0.0 | 0.0 | 0.00 | 0.20 | 0.20 | 82 | 1009.0 |
| 20260905201525 | 22 | 209 | 0.0 | 0.0 | 0.00 | 0.20 | 0.20 | 84 | 1009.2 |
| 20260905200105 | 21 | 209 | 0.0 | 0.0 | 0.00 | 0.20 | 0.20 | 84 | 1009.2 |
| 20260905194521 | 21 | 209 | 0.0 | 0.0 | 0.00 | 0.20 | 0.20 | 84 | 1009.3 |
| 20260905193045 | 20 | 209 | 0.0 | 0.0 | 0.00 | 0.20 | 0.20 | 84 | 1009.3 |
| 20260905191520 | 20 | 209 | 0.0 | 0.0 | 0.00 | 0.20 | 0.20 | 83 | 1009.5 |
| 20260905190046 | 20 | 209 | 0.0 | 0.0 | 0.00 | 0.20 | 0.20 | 82 | 1009.8 |
| 20260905184510 | 20 | 209 | 0.0 | 0.0 | 0.00 | 0.20 | 0.20 | 82 | 1010.0 |
| 20260905183043 | 21 | 209 | 0.0 | 0.0 | 0.13 | 0.20 | 0.20 | 80 | 1009.9 |
| 20260905181506 | 22 | 209 | 0.0 | 0.0 | 0.20 | 0.20 | 0.20 | 78 | 1009.7 |
| 20260905180048 | 23 | 209 | 0.0 | 0.0 | 0.20 | 0.20 | 0.20 | 75 | 1010.2 |
| 20260905174559 | 25 | 209 | 0.0 | 0.0 | 0.20 | 0.20 | 0.20 | 72 | 1011.0 |
| 20260905173033 | 27 | 302 | 0.0 | 0.0 | 0.05 | 0.05 | 0.05 | 66 | 1011.7 |
| 20260905171559 | 30 | 214 | 0.0 | 0.0 | 0.00 | 0.00 | 0.00 | 67 | 1011.1 |
| 20260905170023 | 30 | 214 | 0.0 | 0.0 | 0.00 | 0.00 | 0.00 | 66 | 1010.8 |
| 20260905164550 | 30 | 212 | 0.0 | 0.0 | 0.00 | 0.00 | 0.00 | 69 | 1010.8 |
| 20260905163017 | 29 | 212 | 0.0 | 0.0 | 0.00 | 0.00 | 0.00 | 70 | 1010.9 |
| 20260905161541 | 28 | 212 | 0.0 | 0.0 | 0.00 | 0.00 | 0.00 | 73 | 1011.0 |
| 20260905160001 | 28 | 211 | 0.0 | 0.0 | 0.00 | 0.00 | 0.00 | 74 | 1011.3 |
| 20260905154527 | 27 | 203 | 0.0 | 0.0 | 0.00 | 0.00 | 0.00 | 76 | 1011.4 |
| 20260905153051 | 26 | 203 | 0.0 | 0.0 | 0.00 | 0.00 | 0.00 | 77 | 1011.3 |
| 20260905151510 | 25 | 191 | 0.0 | 0.0 | 0.00 | 0.00 | 0.00 | 83 | 1011.0 |
| 20260905150042 | 23 | 192 | 0.0 | 0.0 | 0.00 | 0.00 | 0.00 | 87 | 1011.1 |
| 20260905144601 | 22 | 192 | 0.0 | 0.0 | 0.00 | 0.00 | 0.00 | 87 | 1011.3 |
| 20260905143025 | 21 | 197 | 0.0 | 0.0 | 0.00 | 0.00 | 0.00 | 87 | 1011.3 |
| 20260905141545 | 21 | 197 | 0.0 | 0.0 | 0.00 | 0.00 | 0.00 | 87 | 1011.3 |
| 20260905140002 | 20 | 197 | 0.0 | 0.0 | 0.00 | 0.00 | 0.00 | 87 | 1011.5 |
| 20260905134532 | 19 | 197 | 0.0 | 0.0 | 0.00 | 0.00 | 0.00 | 87 | 1011.4 |
| 20260905133056 | 18 | 197 | 0.0 | 0.0 | 0.00 | 0.00 | 0.00 | 87 | 1011.6 |
| 20260905131525 | 18 | 197 | 0.0 | 0.0 | 0.00 | 0.00 | 0.00 | 87 | 1011.8 |
| 20260905130052 | 18 | 197 | 0.0 | 0.0 | 0.00 | 0.00 | 0.00 | 87 | 1012.1 |
| 20260905124522 | 17 | 197 | 0.0 | 0.0 | 0.00 | 0.00 | 0.00 | 86 | 1012.3 |
| 20260905123057 | 17 | 197 | 0.0 | 0.0 | 0.00 | 0.00 | 0.00 | 86 | 1012.2 |
| 20260905121526 | 17 | 197 | 0.0 | 0.0 | 0.00 | 0.00 | 0.00 | 86 | 1012.0 |
| 20260905114512 | 17 | 197 | 0.0 | 0.0 | 0.00 | 0.00 | 0.00 | 86 | 1011.8 |
| 20260905113051 | 17 | 197 | 0.0 | 0.0 | 0.00 | 0.00 | 0.00 | 85 | 1011.6 |
| 20260905111653 | 17 | 197 | 0.0 | 0.0 | 0.00 | 0.00 | 0.00 | 86 | 1011.5 |
| 20260905110029 | 17 | 197 | 0.0 | 0.0 | 0.00 | 0.00 | 0.00 | 85 | 1011.2 |
| 20260905104551 | 17 | 197 | 0.0 | 0.0 | 0.00 | 0.00 | 0.00 | 85 | 1011.0 |
| 20260905103028 | 17 | 197 | 0.0 | 0.0 | 0.00 | 0.00 | 0.00 | 85 | 1011.0 |
| 20260905101546 | 17 | 197 | 0.0 | 0.0 | 0.00 | 0.00 | 0.00 | 85 | 1010.9 |
| 20260905100011 | 17 | 197 | 0.0 | 0.0 | 0.00 | 0.00 | 0.00 | 85 | 1010.9 |
| 20260905094544 | 17 | 197 | 0.0 | 0.0 | 0.00 | 0.00 | 0.00 | 85 | 1011.0 |
| 20260905093122 | 17 | 197 | 0.0 | 0.0 | 0.00 | 0.00 | 0.00 | 85 | 1010.8 |
| 20260905091535 | 17 | 197 | 0.0 | 0.0 | 0.00 | 0.00 | 0.00 | 85 | 1010.8 |
| 20260905090059 | 17 | 197 | 0.0 | 0.0 | 0.00 | 0.00 | 0.00 | 85 | 1010.9 |
| 20260905084525 | 18 | 197 | 0.0 | 0.0 | 0.00 | 0.00 | 0.00 | 85 | 1011.0 |
| 20260905083041 | 18 | 197 | 0.0 | 0.0 | 0.00 | 0.00 | 0.00 | 85 | 1011.3 |
| 20260905081505 | 18 | 197 | 0.0 | 0.0 | 0.00 | 0.00 | 0.00 | 85 | 1011.3 |
| 20260905080037 | 18 | 197 | 0.0 | 0.0 | 0.00 | 0.00 | 0.00 | 85 | 1011.4 |
| 20260905074559 | 18 | 197 | 0.0 | 0.0 | 0.00 | 0.00 | 0.00 | 85 | 1011.7 |
| 20260905073035 | 18 | 197 | 0.0 | 0.0 | 0.00 | 0.00 | 0.00 | 85 | 1011.9 |
| 20260905071554 | 18 | 197 | 0.0 | 0.0 | 0.00 | 0.00 | 0.00 | 84 | 1011.9 |
| 20260905070044 | 18 | 197 | 0.0 | 0.0 | 0.00 | 0.00 | 0.00 | 84 | 1012.0 |
| 20260905064609 | 18 | 197 | 0.0 | 0.0 | 0.00 | 0.00 | 0.00 | 84 | 1012.1 |
| 20260905063020 | 19 | 197 | 0.0 | 0.0 | 0.00 | 0.00 | 0.00 | 84 | 1012.3 |
| 20260905061543 | 19 | 197 | 0.0 | 0.0 | 0.00 | 0.00 | 0.00 | 84 | 1012.6 |
| 20260905060021 | 19 | 197 | 0.0 | 0.0 | 0.00 | 0.00 | 0.00 | 84 | 1012.7 |
| 20260905054547 | 20 | 197 | 0.0 | 0.0 | 0.00 | 0.00 | 0.00 | 84 | 1012.9 |
| 20260905053007 | 20 | 197 | 0.0 | 0.0 | 0.00 | 0.00 | 0.00 | 84 | 1012.9 |
| 20260905051542 | 20 | 197 | 0.0 | 0.0 | 0.00 | 0.00 | 0.00 | 84 | 1012.9 |
| 20260905050007 | 20 | 197 | 0.0 | 0.0 | 0.00 | 0.00 | 0.00 | 84 | 1012.9 |
| 20260905044530 | 20 | 197 | 0.0 | 0.0 | 0.00 | 0.00 | 0.00 | 83 | 1013.0 |